createdAt,value
2022-08-19T00:00:27.024Z,19.89
2022-08-19T00:01:30.454Z,19.89
2022-08-19T00:02:27.013Z,19.94
2022-08-19T00:03:27.008Z,19.92
2022-08-19T00:04:27.153Z,19.98
2022-08-19T00:05:26.995Z,19.94
2022-08-19T00:06:26.987Z,19.94
2022-08-19T00:07:26.984Z,19.92
2022-08-19T00:08:26.976Z,19.80
2022-08-19T00:09:26.972Z,19.92
2022-08-19T00:10:26.967Z,19.90
2022-08-19T00:11:26.965Z,19.85
2022-08-19T00:12:26.950Z,19.94
2022-08-19T00:13:26.945Z,19.90
2022-08-19T00:14:26.939Z,19.94
2022-08-19T00:15:26.933Z,19.92
2022-08-19T00:16:27.106Z,19.94
2022-08-19T00:17:26.923Z,19.95
2022-08-19T00:18:26.915Z,19.89
2022-08-19T00:19:26.909Z,19.97
2022-08-19T00:20:26.901Z,19.89
2022-08-19T00:21:26.902Z,19.92
2022-08-19T00:22:26.889Z,19.95
2022-08-19T00:23:26.935Z,20.01
2022-08-19T00:24:26.877Z,19.87
2022-08-19T00:25:29.884Z,19.98
2022-08-19T00:26:26.865Z,20.02
2022-08-19T00:27:27.040Z,19.95
2022-08-19T00:28:26.851Z,19.90
2022-08-19T00:29:26.849Z,19.98
2022-08-19T00:30:26.842Z,20.02
2022-08-19T00:31:26.836Z,20.08
2022-08-19T00:32:27.227Z,20.01
2022-08-19T00:33:26.825Z,20.07
2022-08-19T00:34:26.816Z,20.01
2022-08-19T00:35:26.812Z,20.10
2022-08-19T00:36:26.803Z,20.02
2022-08-19T00:37:26.800Z,20.01
2022-08-19T00:38:34.989Z,20.07
2022-08-19T00:39:26.786Z,20.04
2022-08-19T00:40:26.797Z,20.01
2022-08-19T00:41:26.776Z,20.05
2022-08-19T00:42:26.768Z,20.10
2022-08-19T00:43:26.836Z,20.05
2022-08-19T00:44:27.384Z,20.07
2022-08-19T00:45:26.779Z,20.02
2022-08-19T00:46:26.749Z,20.13
2022-08-19T00:47:26.756Z,20.08
2022-08-19T00:48:26.755Z,20.08
2022-08-19T00:49:26.727Z,20.04
2022-08-19T00:50:26.726Z,20.05
2022-08-19T00:51:26.713Z,20.01
2022-08-19T00:52:26.705Z,20.01
2022-08-19T00:53:26.702Z,19.98
2022-08-19T00:54:31.046Z,20.07
2022-08-19T00:55:26.689Z,20.01
2022-08-19T00:56:26.683Z,20.02
2022-08-19T00:57:26.677Z,20.05
2022-08-19T00:58:26.669Z,20.08
2022-08-19T00:59:56.557Z,20.07
2022-08-19T01:00:26.659Z,20.05
2022-08-19T01:01:26.699Z,19.92
2022-08-19T01:02:26.751Z,20.00
2022-08-19T01:03:26.641Z,19.89
2022-08-19T01:04:26.634Z,19.94
2022-08-19T01:05:26.629Z,19.90
2022-08-19T01:06:26.655Z,19.90
2022-08-19T01:07:26.616Z,19.94
2022-08-19T01:08:26.612Z,19.87
2022-08-19T01:09:26.604Z,19.92
2022-08-19T01:10:26.594Z,19.89
2022-08-19T01:11:26.590Z,19.90
2022-08-19T01:12:26.584Z,19.87
2022-08-19T01:13:26.592Z,19.87
2022-08-19T01:14:26.569Z,19.97
2022-08-19T01:15:26.563Z,19.87
2022-08-19T01:16:26.556Z,19.86
2022-08-19T01:17:26.553Z,19.90
2022-08-19T01:18:26.544Z,19.90
2022-08-19T01:19:26.542Z,19.90
2022-08-19T01:20:26.533Z,19.86
2022-08-19T01:21:26.528Z,19.87
2022-08-19T01:22:31.426Z,19.87
2022-08-19T01:23:26.515Z,19.89
2022-08-19T01:24:26.507Z,19.92
2022-08-19T01:25:26.561Z,19.85
2022-08-19T01:26:26.495Z,19.92
2022-08-19T01:27:26.492Z,19.90
2022-08-19T01:28:34.313Z,19.90
2022-08-19T01:29:26.478Z,19.87
2022-08-19T01:30:26.470Z,19.89
2022-08-19T01:31:27.766Z,19.90
2022-08-19T01:32:33.173Z,19.89
2022-08-19T01:33:26.453Z,19.92
2022-08-19T01:34:26.447Z,19.90
2022-08-19T01:35:26.455Z,19.89
2022-08-19T01:36:26.432Z,19.85
2022-08-19T01:37:27.211Z,19.90
2022-08-19T01:38:26.520Z,19.87
2022-08-19T01:39:26.415Z,19.85
2022-08-19T01:40:26.407Z,19.85
2022-08-19T01:41:26.403Z,19.89
2022-08-19T01:42:30.192Z,19.94
2022-08-19T01:43:26.391Z,19.90
2022-08-19T01:44:26.382Z,19.89
2022-08-19T01:45:26.377Z,19.90
2022-08-19T01:46:26.419Z,19.90
2022-08-19T01:47:26.365Z,19.90
2022-08-19T01:48:26.357Z,19.94
2022-08-19T01:49:26.352Z,19.92
2022-08-19T01:50:26.345Z,19.95
2022-08-19T01:51:26.341Z,19.95
2022-08-19T01:52:26.333Z,19.92
2022-08-19T01:53:26.710Z,19.87
2022-08-19T01:54:27.563Z,19.98
2022-08-19T01:55:26.317Z,20.00
2022-08-19T01:56:26.309Z,20.07
2022-08-19T01:57:26.304Z,20.05
2022-08-19T01:58:26.295Z,20.04
2022-08-19T01:59:26.290Z,20.04
2022-08-19T02:00:26.282Z,20.04
2022-08-19T02:01:26.297Z,20.04
2022-08-19T02:02:26.270Z,20.02
2022-08-19T02:03:26.266Z,20.02
2022-08-19T02:04:26.259Z,19.92
2022-08-19T02:05:26.255Z,19.87
2022-08-19T02:06:26.914Z,19.97
2022-08-19T02:07:26.242Z,19.92
2022-08-19T02:08:26.233Z,19.97
2022-08-19T02:09:26.229Z,19.90
2022-08-19T02:10:26.223Z,19.97
2022-08-19T02:11:26.217Z,20.04
2022-08-19T02:12:26.258Z,19.94
2022-08-19T02:13:26.646Z,19.90
2022-08-19T02:14:26.197Z,19.87
2022-08-19T02:15:26.191Z,19.90
2022-08-19T02:16:26.283Z,19.90
2022-08-19T02:17:26.180Z,19.79
2022-08-19T02:18:28.072Z,19.90
2022-08-19T02:19:26.167Z,19.86
2022-08-19T02:20:26.162Z,19.89
2022-08-19T02:21:26.154Z,19.90
2022-08-19T02:22:26.147Z,20.01
2022-08-19T02:23:26.141Z,19.90
2022-08-19T02:24:26.136Z,20.00
2022-08-19T02:25:26.131Z,19.85
2022-08-19T02:26:26.123Z,19.92
2022-08-19T02:27:26.118Z,19.89
2022-08-19T02:28:26.110Z,19.90
2022-08-19T02:29:26.107Z,19.86
2022-08-19T02:30:26.097Z,19.92
2022-08-19T02:31:26.093Z,19.90
2022-08-19T02:32:26.085Z,19.85
2022-08-19T02:33:26.081Z,19.92
2022-08-19T02:34:26.075Z,19.94
2022-08-19T02:35:26.069Z,19.89
2022-08-19T02:36:26.063Z,19.89
2022-08-19T02:37:26.057Z,19.90
2022-08-19T02:38:26.048Z,19.85
2022-08-19T02:39:26.044Z,19.86
2022-08-19T02:40:26.034Z,19.92
2022-08-19T02:41:26.883Z,19.97
2022-08-19T02:42:26.029Z,19.92
2022-08-19T02:43:26.019Z,19.94
2022-08-19T02:44:30.929Z,19.92
2022-08-19T02:45:26.017Z,20.01
2022-08-19T02:46:26.004Z,19.94
2022-08-19T02:47:25.995Z,19.98
2022-08-19T02:48:25.986Z,19.94
2022-08-19T02:49:25.985Z,19.90
2022-08-19T02:50:25.975Z,19.92
2022-08-19T02:51:25.972Z,19.97
2022-08-19T02:52:25.962Z,20.05
2022-08-19T02:53:25.958Z,20.02
2022-08-19T02:54:25.950Z,20.02
2022-08-19T02:55:25.944Z,20.02
2022-08-19T02:56:25.937Z,20.10
2022-08-19T02:57:25.933Z,20.08
2022-08-19T02:58:25.925Z,20.12
2022-08-19T02:59:25.920Z,20.12
2022-08-19T03:00:25.913Z,20.01
2022-08-19T03:01:25.922Z,20.02
2022-08-19T03:02:25.902Z,20.00
2022-08-19T03:03:25.895Z,20.04
2022-08-19T03:04:25.890Z,19.92
2022-08-19T03:05:46.853Z,20.01
2022-08-19T03:06:25.879Z,20.02
2022-08-19T03:07:25.871Z,19.94
2022-08-19T03:08:25.868Z,19.86
2022-08-19T03:09:25.857Z,19.87
2022-08-19T03:10:25.853Z,19.92
2022-08-19T03:11:25.847Z,19.90
2022-08-19T03:12:25.939Z,19.94
2022-08-19T03:13:25.833Z,19.90
2022-08-19T03:14:25.829Z,19.90
2022-08-19T03:15:25.820Z,19.90
2022-08-19T03:16:25.815Z,19.89
2022-08-19T03:17:25.809Z,19.90
2022-08-19T03:18:25.809Z,19.94
2022-08-19T03:19:25.794Z,19.89
2022-08-19T03:20:25.789Z,19.87
2022-08-19T03:21:25.783Z,19.94
2022-08-19T03:22:25.780Z,19.94
2022-08-19T03:23:25.769Z,19.92
2022-08-19T03:24:25.767Z,19.90
2022-08-19T03:25:25.759Z,19.90
2022-08-19T03:26:25.754Z,19.97
2022-08-19T03:27:29.038Z,19.90
2022-08-19T03:28:25.743Z,19.86
2022-08-19T03:29:30.180Z,19.89
2022-08-19T03:30:25.743Z,19.94
2022-08-19T03:31:43.423Z,19.94
2022-08-19T03:32:32.653Z,19.95
2022-08-19T03:33:28.617Z,19.87
2022-08-19T03:34:25.707Z,20.01
2022-08-19T03:35:25.696Z,20.01
2022-08-19T03:36:25.693Z,20.07
2022-08-19T03:37:25.734Z,20.01
2022-08-19T03:38:25.687Z,20.04
2022-08-19T03:39:25.672Z,20.02
2022-08-19T03:40:25.668Z,20.10
2022-08-19T03:41:25.662Z,20.02
2022-08-19T03:42:32.285Z,20.04
2022-08-19T03:43:25.648Z,20.04
2022-08-19T03:44:25.643Z,20.07
2022-08-19T03:45:25.635Z,20.04
2022-08-19T03:46:25.630Z,20.01
2022-08-19T03:47:25.623Z,20.07
2022-08-19T03:48:25.619Z,20.01
2022-08-19T03:49:27.212Z,20.00
2022-08-19T03:50:25.610Z,20.01
2022-08-19T03:51:30.802Z,20.00
2022-08-19T03:52:25.594Z,19.95
2022-08-19T03:53:25.586Z,19.95
2022-08-19T03:54:25.586Z,20.07
2022-08-19T03:55:25.575Z,20.04
2022-08-19T03:56:25.569Z,20.02
2022-08-19T03:57:31.713Z,20.01
2022-08-19T03:58:25.556Z,20.10
2022-08-19T03:59:25.548Z,20.01
2022-08-19T04:00:25.544Z,20.07
2022-08-19T04:01:35.336Z,20.01
2022-08-19T04:02:25.531Z,19.97
2022-08-19T04:03:25.523Z,19.95
2022-08-19T04:04:25.521Z,19.95
2022-08-19T04:05:27.904Z,20.07
2022-08-19T04:06:25.505Z,20.07
2022-08-19T04:07:25.499Z,19.95
2022-08-19T04:08:25.494Z,20.02
2022-08-19T04:09:25.486Z,19.89
2022-08-19T04:10:25.481Z,19.97
2022-08-19T04:11:43.470Z,19.90
2022-08-19T04:12:25.468Z,19.94
2022-08-19T04:13:25.460Z,19.92
2022-08-19T04:14:25.458Z,19.90
2022-08-19T04:15:25.446Z,19.87
2022-08-19T04:16:28.568Z,20.02
2022-08-19T04:17:25.435Z,19.90
2022-08-19T04:18:25.431Z,19.98
2022-08-19T04:19:25.422Z,20.02
2022-08-19T04:20:25.417Z,20.02
2022-08-19T04:21:25.410Z,20.02
2022-08-19T04:22:25.505Z,19.94
2022-08-19T04:23:25.396Z,20.02
2022-08-19T04:24:25.593Z,20.05
2022-08-19T04:25:25.382Z,20.05
2022-08-19T04:26:25.380Z,20.02
2022-08-19T04:27:25.370Z,20.15
2022-08-19T04:28:25.366Z,20.16
2022-08-19T04:29:25.358Z,20.15
2022-08-19T04:30:25.354Z,20.15
2022-08-19T04:31:25.345Z,20.20
2022-08-19T04:32:25.340Z,20.25
2022-08-19T04:33:26.790Z,20.17
2022-08-19T04:34:25.328Z,20.20
2022-08-19T04:35:25.320Z,20.25
2022-08-19T04:36:25.314Z,20.33
2022-08-19T04:37:25.305Z,20.30
2022-08-19T04:38:25.303Z,20.31
2022-08-19T04:39:25.294Z,20.26
2022-08-19T04:40:25.295Z,20.17
2022-08-19T04:41:25.281Z,20.16
2022-08-19T04:42:30.733Z,20.10
2022-08-19T04:43:25.267Z,20.07
2022-08-19T04:44:25.262Z,20.10
2022-08-19T04:45:25.255Z,20.00
2022-08-19T04:46:40.676Z,20.07
2022-08-19T04:47:49.420Z,19.97
2022-08-19T04:48:27.263Z,20.04
2022-08-19T04:49:25.228Z,20.07
2022-08-19T04:50:25.224Z,20.01
2022-08-19T04:51:25.215Z,19.97
2022-08-19T04:52:25.212Z,20.00
2022-08-19T04:53:25.203Z,19.98
2022-08-19T04:54:33.802Z,19.94
2022-08-19T04:55:25.189Z,19.98
2022-08-19T04:56:25.186Z,20.01
2022-08-19T04:57:25.181Z,20.07
2022-08-19T04:58:25.174Z,20.00
2022-08-19T04:59:25.165Z,20.04
2022-08-19T05:00:25.160Z,20.02
2022-08-19T05:01:25.232Z,19.87
2022-08-19T05:02:25.148Z,19.90
2022-08-19T05:03:28.777Z,20.02
2022-08-19T05:04:25.134Z,20.00
2022-08-19T05:05:25.126Z,19.98
2022-08-19T05:06:25.121Z,19.90
2022-08-19T05:07:25.129Z,19.92
2022-08-19T05:08:30.897Z,19.97
2022-08-19T05:09:25.308Z,19.90
2022-08-19T05:10:25.100Z,19.90
2022-08-19T05:11:26.683Z,19.89
2022-08-19T05:12:28.939Z,20.02
2022-08-19T05:13:25.078Z,19.98
2022-08-19T05:14:25.072Z,19.92
2022-08-19T05:15:25.062Z,20.01
2022-08-19T05:16:25.058Z,20.02
2022-08-19T05:17:28.164Z,19.92
2022-08-19T05:18:25.047Z,19.98
2022-08-19T05:19:25.036Z,20.02
2022-08-19T05:20:25.036Z,20.04
2022-08-19T05:21:25.025Z,20.07
2022-08-19T05:22:25.021Z,19.98
2022-08-19T05:23:25.112Z,20.01
2022-08-19T05:24:25.006Z,20.05
2022-08-19T05:25:25.000Z,20.10
2022-08-19T05:26:24.995Z,20.01
2022-08-19T05:27:24.986Z,20.04
2022-08-19T05:28:24.982Z,19.89
2022-08-19T05:29:24.972Z,20.00
2022-08-19T05:30:42.151Z,19.97
2022-08-19T05:31:24.961Z,20.02
2022-08-19T05:32:24.956Z,19.97
2022-08-19T05:33:24.948Z,19.87
2022-08-19T05:34:24.944Z,20.00
2022-08-19T05:35:24.938Z,19.92
2022-08-19T05:36:24.931Z,20.02
2022-08-19T05:37:24.924Z,19.94
2022-08-19T05:38:24.918Z,19.94
2022-08-19T05:39:25.010Z,19.94
2022-08-19T05:40:24.907Z,20.01
2022-08-19T05:41:24.898Z,19.97
2022-08-19T05:42:24.893Z,19.87
2022-08-19T05:43:24.886Z,19.95
2022-08-19T05:44:24.881Z,19.92
2022-08-19T05:45:24.872Z,20.02
2022-08-19T05:46:28.145Z,20.01
2022-08-19T05:47:24.857Z,19.97
2022-08-19T05:48:24.858Z,20.05
2022-08-19T05:49:24.845Z,20.02
2022-08-19T05:50:24.842Z,20.01
2022-08-19T05:51:28.826Z,20.00
2022-08-19T05:52:25.990Z,20.01
2022-08-19T05:53:24.821Z,20.10
2022-08-19T05:54:24.817Z,20.07
2022-08-19T05:55:24.808Z,19.97
2022-08-19T05:56:24.804Z,20.07
2022-08-19T05:57:24.801Z,20.04
2022-08-19T05:58:24.792Z,20.00
2022-08-19T05:59:24.988Z,20.07
2022-08-19T06:00:24.903Z,20.01
2022-08-19T06:01:24.772Z,20.05
2022-08-19T06:02:24.843Z,20.10
2022-08-19T06:03:24.767Z,20.08
2022-08-19T06:04:24.752Z,20.04
2022-08-19T06:05:24.745Z,20.04
2022-08-19T06:06:24.746Z,20.01
2022-08-19T06:07:24.780Z,20.08
2022-08-19T06:08:33.679Z,20.02
2022-08-19T06:09:24.719Z,20.01
2022-08-19T06:10:24.714Z,19.98
2022-08-19T06:11:24.706Z,20.00
2022-08-19T06:12:24.700Z,20.08
2022-08-19T06:13:24.693Z,20.08
2022-08-19T06:14:27.717Z,20.10
2022-08-19T06:15:24.679Z,20.12
2022-08-19T06:16:24.678Z,20.16
2022-08-19T06:17:24.669Z,20.22
2022-08-19T06:18:24.666Z,20.12
2022-08-19T06:19:24.655Z,20.27
2022-08-19T06:20:45.948Z,20.22
2022-08-19T06:21:24.644Z,20.23
2022-08-19T06:22:24.639Z,20.31
2022-08-19T06:23:24.630Z,20.35
2022-08-19T06:24:24.626Z,20.25
2022-08-19T06:25:27.819Z,20.33
2022-08-19T06:26:24.615Z,20.34
2022-08-19T06:27:24.605Z,20.31
2022-08-19T06:28:24.603Z,20.34
2022-08-19T06:29:24.606Z,20.35
2022-08-19T06:30:24.590Z,20.35
2022-08-19T06:31:24.582Z,20.34
2022-08-19T06:32:24.576Z,20.40
2022-08-19T06:33:24.569Z,20.44
2022-08-19T06:34:24.566Z,20.38
2022-08-19T06:35:24.557Z,20.48
2022-08-19T06:36:25.254Z,20.41
2022-08-19T06:37:24.545Z,20.50
2022-08-19T06:38:24.558Z,20.41
2022-08-19T06:39:24.532Z,20.53
2022-08-19T06:40:24.529Z,20.46
2022-08-19T06:41:24.519Z,20.50
2022-08-19T06:42:24.518Z,20.54
2022-08-19T06:43:24.508Z,20.53
2022-08-19T06:44:25.836Z,20.63
2022-08-19T06:45:34.526Z,20.60
2022-08-19T06:46:24.492Z,20.61
2022-08-19T06:47:25.326Z,20.57
2022-08-19T06:48:24.482Z,20.64
2022-08-19T06:49:24.472Z,20.64
2022-08-19T06:50:25.044Z,20.64
2022-08-19T06:51:24.526Z,20.64
2022-08-19T06:52:24.454Z,20.66
2022-08-19T06:53:24.449Z,20.57
2022-08-19T06:54:24.445Z,20.72
2022-08-19T06:55:24.434Z,20.69
2022-08-19T06:56:24.431Z,20.68
2022-08-19T06:57:24.426Z,20.68
2022-08-19T06:58:24.420Z,20.64
2022-08-19T06:59:24.412Z,20.60
2022-08-19T07:00:24.533Z,20.60
2022-08-19T07:01:24.403Z,20.60
2022-08-19T07:02:24.496Z,20.64
2022-08-19T07:03:24.398Z,20.64
2022-08-19T07:04:24.387Z,20.58
2022-08-19T07:05:24.376Z,20.66
2022-08-19T07:06:43.104Z,20.76
2022-08-19T07:07:24.362Z,20.72
2022-08-19T07:08:24.467Z,20.78
2022-08-19T07:09:24.357Z,20.76
2022-08-19T07:10:24.392Z,20.76
2022-08-19T07:11:24.340Z,20.81
2022-08-19T07:12:24.336Z,20.76
2022-08-19T07:13:24.329Z,20.82
2022-08-19T07:14:24.323Z,20.72
2022-08-19T07:15:24.319Z,20.71
2022-08-19T07:16:29.226Z,20.75
2022-08-19T07:17:24.309Z,20.75
2022-08-19T07:18:24.309Z,20.78
2022-08-19T07:19:24.293Z,20.76
2022-08-19T07:20:28.569Z,20.76
2022-08-19T07:21:24.283Z,20.76
2022-08-19T07:22:24.632Z,20.76
2022-08-19T07:23:24.293Z,20.73
2022-08-19T07:24:24.260Z,20.76
2022-08-19T07:25:32.271Z,20.81
2022-08-19T07:26:27.873Z,20.76
2022-08-19T07:27:25.450Z,20.76
2022-08-19T07:28:25.106Z,20.79
2022-08-19T07:29:25.823Z,20.73
2022-08-19T07:30:26.293Z,20.64
2022-08-19T07:31:24.219Z,20.72
2022-08-19T07:32:24.214Z,20.68
2022-08-19T07:33:24.208Z,20.63
2022-08-19T07:34:24.201Z,20.60
2022-08-19T07:36:24.190Z,20.61
2022-08-19T07:37:24.181Z,20.61
2022-08-19T07:38:24.180Z,20.66
2022-08-19T07:39:24.170Z,20.64
2022-08-19T07:40:24.170Z,20.61
2022-08-19T07:41:24.160Z,20.68
2022-08-19T07:42:24.154Z,20.68
2022-08-19T07:43:24.145Z,20.60
2022-08-19T07:44:24.141Z,20.64
2022-08-19T07:45:24.134Z,20.60
2022-08-19T07:46:24.134Z,20.56
2022-08-19T07:47:47.504Z,20.51
2022-08-19T07:48:24.117Z,20.48
2022-08-19T07:49:24.160Z,20.51
2022-08-19T07:50:24.106Z,20.44
2022-08-19T07:51:36.759Z,20.50
2022-08-19T07:52:24.092Z,20.46
2022-08-19T07:53:24.085Z,20.53
2022-08-19T07:54:24.080Z,20.51
2022-08-19T07:55:41.470Z,20.53
2022-08-19T07:56:24.081Z,20.48
2022-08-19T07:57:24.059Z,20.60
2022-08-19T07:58:24.056Z,20.60
2022-08-19T07:59:24.049Z,20.66
2022-08-19T08:00:24.598Z,20.63
2022-08-19T08:01:24.064Z,20.66
2022-08-19T08:02:24.030Z,20.68
2022-08-19T08:03:24.023Z,20.60
2022-08-19T08:04:24.018Z,20.66
2022-08-19T08:05:24.010Z,20.61
2022-08-19T08:06:24.007Z,20.60
2022-08-19T08:07:23.997Z,20.53
2022-08-19T08:08:27.704Z,20.48
2022-08-19T08:09:24.027Z,20.51
2022-08-19T08:10:24.340Z,20.46
2022-08-19T08:11:24.212Z,20.44
2022-08-19T08:12:34.187Z,20.50
2022-08-19T08:13:23.961Z,20.46
2022-08-19T08:14:29.324Z,20.48
2022-08-19T08:15:25.085Z,20.53
2022-08-19T08:16:23.944Z,20.53
2022-08-19T08:17:48.784Z,20.48
2022-08-19T08:18:27.679Z,20.44
2022-08-19T08:19:25.860Z,20.48
2022-08-19T08:20:23.919Z,20.42
2022-08-19T08:21:23.911Z,20.50
2022-08-19T08:22:23.908Z,20.50
2022-08-19T08:23:23.896Z,20.48
2022-08-19T08:24:28.470Z,20.48
2022-08-19T08:25:23.887Z,20.48
2022-08-19T08:26:23.884Z,20.46
2022-08-19T08:27:27.050Z,20.48
2022-08-19T08:28:23.869Z,20.50
2022-08-19T08:29:23.861Z,20.54
2022-08-19T08:30:23.906Z,20.58
2022-08-19T08:31:23.849Z,20.64
2022-08-19T08:32:23.847Z,20.72
2022-08-19T08:33:32.896Z,20.63
2022-08-19T08:34:23.831Z,20.75
2022-08-19T08:35:23.822Z,20.69
2022-08-19T08:36:23.820Z,20.78
2022-08-19T08:37:23.812Z,20.71
2022-08-19T08:38:23.807Z,20.73
2022-08-19T08:39:23.813Z,20.88
2022-08-19T08:40:23.854Z,20.85
2022-08-19T08:41:23.789Z,20.87
2022-08-19T08:42:23.783Z,20.88
2022-08-19T08:43:23.776Z,20.79
2022-08-19T08:44:23.771Z,20.85
2022-08-19T08:45:23.762Z,20.88
2022-08-19T08:46:31.645Z,20.83
2022-08-19T08:47:23.750Z,20.88
2022-08-19T08:48:24.166Z,20.82
2022-08-19T08:49:23.738Z,20.83
2022-08-19T08:50:23.734Z,20.85
2022-08-19T08:51:23.802Z,20.85
2022-08-19T08:52:23.723Z,20.76
2022-08-19T08:53:31.120Z,20.81
2022-08-19T08:54:23.713Z,20.76
2022-08-19T08:55:23.700Z,20.76
2022-08-19T08:56:23.727Z,20.76
2022-08-19T08:57:23.689Z,20.83
2022-08-19T08:58:23.688Z,20.78
2022-08-19T08:59:23.679Z,20.88
2022-08-19T09:00:23.673Z,20.83
2022-08-19T09:01:23.748Z,20.87
2022-08-19T09:02:23.661Z,20.87
2022-08-19T09:03:23.652Z,20.87
2022-08-19T09:04:23.933Z,20.82
2022-08-19T09:05:26.115Z,20.91
2022-08-19T09:06:23.637Z,20.83
2022-08-19T09:07:35.407Z,20.81
2022-08-19T09:08:23.624Z,20.88
2022-08-19T09:09:23.617Z,20.85
2022-08-19T09:10:25.950Z,20.96
2022-08-19T09:11:42.074Z,20.90
2022-08-19T09:12:26.969Z,20.94
2022-08-19T09:13:23.592Z,20.91
2022-08-19T09:14:49.245Z,20.88
2022-08-19T09:15:29.958Z,20.93
2022-08-19T09:16:27.960Z,20.88
2022-08-19T09:17:23.569Z,21.01
2022-08-19T09:18:23.565Z,20.93
2022-08-19T09:19:23.557Z,20.96
2022-08-19T09:20:23.553Z,20.93
2022-08-19T09:21:30.304Z,20.94
2022-08-19T09:22:25.517Z,20.90
2022-08-19T09:23:26.627Z,20.90
2022-08-19T09:24:23.528Z,20.90
2022-08-19T09:25:26.722Z,20.87
2022-08-19T09:26:23.517Z,20.91
2022-08-19T09:27:23.509Z,20.85
2022-08-19T09:28:27.273Z,20.88
2022-08-19T09:29:23.497Z,20.85
2022-08-19T09:30:23.497Z,20.87
2022-08-19T09:31:23.485Z,20.83
2022-08-19T09:32:26.581Z,20.85
2022-08-19T09:33:23.487Z,20.88
2022-08-19T09:34:23.471Z,20.88
2022-08-19T09:35:23.461Z,20.83
2022-08-19T09:36:31.283Z,20.82
2022-08-19T09:37:23.450Z,20.88
2022-08-19T09:38:23.451Z,20.85
2022-08-19T09:39:23.437Z,20.88
2022-08-19T09:40:24.768Z,20.88
2022-08-19T09:41:23.426Z,20.79
2022-08-19T09:42:30.338Z,20.81
2022-08-19T09:43:33.873Z,20.90
2022-08-19T09:44:23.413Z,20.88
2022-08-19T09:45:23.403Z,20.87
2022-08-19T09:46:23.901Z,20.90
2022-08-19T09:47:23.389Z,20.91
2022-08-19T09:48:23.763Z,20.85
2022-08-19T09:49:24.428Z,20.87
2022-08-19T09:50:23.375Z,20.96
2022-08-19T09:51:23.368Z,20.82
2022-08-19T09:52:23.375Z,20.87
2022-08-19T09:53:23.356Z,20.87
2022-08-19T09:54:24.903Z,20.88
2022-08-19T09:55:23.402Z,20.82
2022-08-19T09:56:23.342Z,20.87
2022-08-19T09:57:23.330Z,20.85
2022-08-19T09:58:26.546Z,20.91
2022-08-19T09:59:23.318Z,20.93
2022-08-19T10:00:23.313Z,20.94
2022-08-19T10:01:23.400Z,20.90
2022-08-19T10:02:23.307Z,20.87
2022-08-19T10:03:25.421Z,20.93
2022-08-19T10:04:23.293Z,20.93
2022-08-19T10:05:26.711Z,20.91
2022-08-19T10:06:38.173Z,20.87
2022-08-19T10:07:23.270Z,20.97
2022-08-19T10:08:23.269Z,20.90
2022-08-19T10:09:26.205Z,20.90
2022-08-19T10:10:23.255Z,20.87
2022-08-19T10:11:27.278Z,20.83
2022-08-19T10:12:23.243Z,20.83
2022-08-19T10:13:23.235Z,20.85
2022-08-19T10:14:23.487Z,20.82
2022-08-19T10:15:29.280Z,20.83
2022-08-19T10:16:23.219Z,20.76
2022-08-19T10:17:26.409Z,20.75
2022-08-19T10:18:23.208Z,20.83
2022-08-19T10:19:25.276Z,20.88
2022-08-19T10:20:23.197Z,20.88
2022-08-19T10:21:23.187Z,20.85
2022-08-19T10:22:23.183Z,20.87
2022-08-19T10:23:23.175Z,20.85
2022-08-19T10:24:23.172Z,20.93
2022-08-19T10:25:23.163Z,20.94
2022-08-19T10:26:23.160Z,20.93
2022-08-19T10:27:23.154Z,20.96
2022-08-19T10:28:23.148Z,21.00
2022-08-19T10:29:32.553Z,21.00
2022-08-19T10:30:23.136Z,21.01
2022-08-19T10:32:00.448Z,21.11
2022-08-19T10:32:32.047Z,21.12
2022-08-19T10:33:39.068Z,21.00
2022-08-19T10:34:27.817Z,21.05
2022-08-19T10:35:23.105Z,21.08
2022-08-19T10:36:23.100Z,21.12
2022-08-19T10:37:28.860Z,21.16
2022-08-19T10:38:32.417Z,21.13
2022-08-19T10:39:23.522Z,21.21
2022-08-19T10:40:23.173Z,21.15
2022-08-19T10:41:23.071Z,21.13
2022-08-19T10:42:23.069Z,21.19
2022-08-19T10:43:23.058Z,21.12
2022-08-19T10:44:23.054Z,21.15
2022-08-19T10:45:23.047Z,21.22
2022-08-19T10:46:23.045Z,21.27
2022-08-19T10:47:26.086Z,21.27
2022-08-19T10:48:23.033Z,21.26
2022-08-19T10:49:23.025Z,21.18
2022-08-19T10:50:23.021Z,21.18
2022-08-19T10:51:23.090Z,21.13
2022-08-19T10:52:27.251Z,21.15
2022-08-19T10:53:23.003Z,21.24
2022-08-19T10:54:31.136Z,21.27
2022-08-19T10:55:22.990Z,21.16
2022-08-19T10:56:22.987Z,21.18
2022-08-19T10:57:22.980Z,21.30
2022-08-19T10:58:22.976Z,21.27
2022-08-19T10:59:22.967Z,21.28
2022-08-19T11:00:22.964Z,21.37
2022-08-19T11:01:23.122Z,21.40
2022-08-19T11:02:22.954Z,21.43
2022-08-19T11:03:22.944Z,21.46
2022-08-19T11:04:22.941Z,21.38
2022-08-19T11:05:24.417Z,21.46
2022-08-19T11:06:22.933Z,21.51
2022-08-19T11:07:22.925Z,21.48
2022-08-19T11:08:24.162Z,21.52
2022-08-19T11:09:22.912Z,21.52
2022-08-19T11:10:23.169Z,21.58
2022-08-19T11:11:22.901Z,21.56
2022-08-19T11:12:22.898Z,21.56
2022-08-19T11:13:22.890Z,21.53
2022-08-19T11:14:22.886Z,21.52
2022-08-19T11:15:22.879Z,21.46
2022-08-19T11:16:22.876Z,21.52
2022-08-19T11:17:22.869Z,21.52
2022-08-19T11:18:22.866Z,21.52
2022-08-19T11:19:22.859Z,21.55
2022-08-19T11:20:22.857Z,21.53
2022-08-19T11:21:22.847Z,21.43
2022-08-19T11:22:22.844Z,21.42
2022-08-19T11:23:22.836Z,21.45
2022-08-19T11:24:22.831Z,21.43
2022-08-19T11:25:22.825Z,21.49
2022-08-19T11:26:22.821Z,21.38
2022-08-19T11:27:22.814Z,21.43
2022-08-19T11:28:22.813Z,21.42
2022-08-19T11:29:22.806Z,21.45
2022-08-19T11:30:23.001Z,21.42
2022-08-19T11:31:22.791Z,21.51
2022-08-19T11:32:22.793Z,21.51
2022-08-19T11:33:22.784Z,21.48
2022-08-19T11:34:22.775Z,21.49
2022-08-19T11:35:22.772Z,21.40
2022-08-19T11:36:22.781Z,21.36
2022-08-19T11:37:22.762Z,21.48
2022-08-19T11:38:22.958Z,21.43
2022-08-19T11:39:22.751Z,21.43
2022-08-19T11:40:22.845Z,21.48
2022-08-19T11:41:22.740Z,21.49
2022-08-19T11:42:22.734Z,21.49
2022-08-19T11:43:22.731Z,21.49
2022-08-19T11:44:22.722Z,21.58
2022-08-19T11:45:22.719Z,21.52
2022-08-19T11:46:22.712Z,21.61
2022-08-19T11:47:22.708Z,21.61
2022-08-19T11:48:22.701Z,21.59
2022-08-19T11:49:22.696Z,21.68
2022-08-19T11:50:22.691Z,21.64
2022-08-19T11:51:22.729Z,21.67
2022-08-19T11:52:22.680Z,21.64
2022-08-19T11:53:22.677Z,21.73
2022-08-19T11:54:22.668Z,21.75
2022-08-19T11:55:22.764Z,21.73
2022-08-19T11:56:22.658Z,21.73
2022-08-19T11:57:22.656Z,21.73
2022-08-19T11:58:22.648Z,21.68
2022-08-19T11:59:22.644Z,21.75
2022-08-19T12:00:22.642Z,21.70
2022-08-19T12:01:22.633Z,21.77
2022-08-19T12:02:22.649Z,21.74
2022-08-19T12:03:22.624Z,21.79
2022-08-19T12:04:22.672Z,21.73
2022-08-19T12:05:22.615Z,21.77
2022-08-19T12:06:22.618Z,21.74
2022-08-19T12:07:22.617Z,21.74
2022-08-19T12:08:22.594Z,21.79
2022-08-19T12:09:22.593Z,21.74
2022-08-19T12:10:26.258Z,21.71
2022-08-19T12:11:22.582Z,21.81
2022-08-19T12:12:22.575Z,21.73
2022-08-19T12:13:22.570Z,21.77
2022-08-19T12:14:22.564Z,21.79
2022-08-19T12:15:22.561Z,21.79
2022-08-19T12:16:22.554Z,21.74
2022-08-19T12:17:22.552Z,21.79
2022-08-19T12:18:22.545Z,21.68
2022-08-19T12:19:22.847Z,21.77
2022-08-19T12:20:22.533Z,21.82
2022-08-19T12:21:22.530Z,21.86
2022-08-19T12:22:22.524Z,21.91
2022-08-19T12:23:22.518Z,21.89
2022-08-19T12:24:22.514Z,21.82
2022-08-19T12:25:22.510Z,21.90
2022-08-19T12:26:22.503Z,21.91
2022-08-19T12:27:32.030Z,21.83
2022-08-19T12:28:22.492Z,21.89
2022-08-19T12:29:23.892Z,21.93
2022-08-19T12:30:22.483Z,21.96
2022-08-19T12:31:22.478Z,21.86
2022-08-19T12:32:22.471Z,21.91
2022-08-19T12:33:22.469Z,21.86
2022-08-19T12:34:22.465Z,21.89
2022-08-19T12:35:22.457Z,21.86
2022-08-19T12:36:22.552Z,21.89
2022-08-19T12:37:22.450Z,21.89
2022-08-19T12:38:22.442Z,21.93
2022-08-19T12:39:22.440Z,21.93
2022-08-19T12:40:22.431Z,21.96
2022-08-19T12:41:22.479Z,22.02
2022-08-19T12:42:22.422Z,22.01
2022-08-19T12:43:22.418Z,21.93
2022-08-19T12:44:29.165Z,21.91
2022-08-19T12:45:22.408Z,21.91
2022-08-19T12:46:25.433Z,21.96
2022-08-19T12:47:22.397Z,22.02
2022-08-19T12:48:33.898Z,22.01
2022-08-19T12:49:52.007Z,21.94
2022-08-19T12:50:22.381Z,21.98
2022-08-19T12:51:22.383Z,22.05
2022-08-19T12:52:23.103Z,22.15
2022-08-19T12:53:22.368Z,22.20